Terminal Aerodrome Forecast
Issued by NWS Atlanta, GA

Home | Current Version | Previous Version | Text Only | Print | Product List | Glossary On
Versions: 1 2 3 4 5 6 7 8 9 10 11 12 13 14 15 16 17 18 19 20 21 22 23 24 25 26 27 28 29 30
000
FTUS42 KFFC 222341
TAFAHN
TAF
KAHN 222341Z 2300/2324 07007KT P6SM BKN040
     FM230600 07007KT P6SM OVC025
     FM230900 09012KT 5SM -RA BR OVC012
     FM231200 08012KT 2SM SHRA BR OVC007
     FM232200 10009KT 2SM SHRA BR OVC004=

USA.gov is the U.S. government's official web portal to all federal, state and local government web resources and services.